createdAt,value
2023-04-19T00:00:25.451Z,8.50
2023-04-19T00:02:52.763Z,8.46
2023-04-19T00:05:20.355Z,8.64
2023-04-19T00:07:47.152Z,8.77
2023-04-19T00:10:14.369Z,8.56
2023-04-19T00:12:41.436Z,8.57
2023-04-19T00:15:08.550Z,8.53
2023-04-19T00:17:46.729Z,8.48
2023-04-19T00:20:13.815Z,8.48
2023-04-19T00:22:40.774Z,8.50
2023-04-19T00:25:08.305Z,8.62
2023-04-19T00:27:34.985Z,8.50
2023-04-19T00:30:02.066Z,8.23
2023-04-19T00:32:28.787Z,8.14
2023-04-19T00:34:55.927Z,8.12
2023-04-19T00:37:22.982Z,8.13
2023-04-19T00:39:50.255Z,8.27
2023-04-19T00:42:23.585Z,8.42
2023-04-19T00:44:53.161Z,8.43
2023-04-19T00:47:19.854Z,8.90
2023-04-19T00:49:58.578Z,8.39
2023-04-19T00:52:25.666Z,8.79
2023-04-19T00:54:52.356Z,8.72
2023-04-19T00:57:23.404Z,8.50
2023-04-19T00:59:50.497Z,8.57
2023-04-19T01:02:18.719Z,8.71
2023-04-19T01:04:46.585Z,8.26
2023-04-19T01:07:13.422Z,7.91
2023-04-19T01:09:41.375Z,7.78
2023-04-19T01:12:11.026Z,7.69
2023-04-19T01:14:38.317Z,7.67
2023-04-19T01:17:05.187Z,7.56
2023-04-19T01:19:33.006Z,7.49
2023-04-19T01:22:01.293Z,7.56
2023-04-19T01:24:28.026Z,7.48
2023-04-19T01:27:08.985Z,7.45
2023-04-19T01:29:36.206Z,7.45
2023-04-19T01:32:04.641Z,7.43
2023-04-19T01:34:31.754Z,7.52
2023-04-19T01:36:58.537Z,7.46
2023-04-19T01:39:25.942Z,7.57
2023-04-19T01:41:52.656Z,7.51
2023-04-19T01:44:19.732Z,7.44
2023-04-19T01:46:46.460Z,7.49
2023-04-19T01:49:13.264Z,7.35
2023-04-19T01:51:39.964Z,7.25
2023-04-19T01:54:06.707Z,7.26
2023-04-19T01:56:33.773Z,7.41
2023-04-19T01:59:00.827Z,7.43
2023-04-19T02:01:27.564Z,7.41
2023-04-19T02:03:55.586Z,7.32
2023-04-19T02:06:22.470Z,7.29
2023-04-19T02:08:49.296Z,7.20
2023-04-19T02:11:16.077Z,7.12
2023-04-19T02:13:43.009Z,7.20
2023-04-19T02:16:10.164Z,7.07
2023-04-19T02:18:36.901Z,7.27
2023-04-19T02:21:05.820Z,7.20
2023-04-19T02:23:32.564Z,7.04
2023-04-19T02:25:59.435Z,6.98
2023-04-19T02:28:26.488Z,6.93
2023-04-19T02:30:53.238Z,6.86
2023-04-19T02:33:21.607Z,6.78
2023-04-19T02:35:48.684Z,6.79
2023-04-19T02:38:15.442Z,7.03
2023-04-19T02:40:42.474Z,7.24
2023-04-19T02:43:10.040Z,7.09
2023-04-19T02:45:38.357Z,7.34
2023-04-19T02:48:08.102Z,7.48
2023-04-19T02:50:37.319Z,6.96
2023-04-19T02:53:04.012Z,6.95
2023-04-19T02:55:31.065Z,6.88
2023-04-19T02:57:57.970Z,6.74
2023-04-19T03:00:25.194Z,6.67
2023-04-19T03:02:52.424Z,6.73
2023-04-19T03:05:19.753Z,6.65
2023-04-19T03:07:46.544Z,6.65
2023-04-19T03:10:16.132Z,6.59
2023-04-19T03:12:43.228Z,6.49
2023-04-19T03:15:11.498Z,6.33
2023-04-19T03:17:38.279Z,6.37
2023-04-19T03:20:06.377Z,6.40
2023-04-19T03:22:33.102Z,6.34
2023-04-19T03:24:59.810Z,6.32
2023-04-19T03:27:26.677Z,6.32
2023-04-19T03:29:55.339Z,6.23
2023-04-19T03:32:22.231Z,6.19
2023-04-19T03:34:49.301Z,6.12
2023-04-19T03:37:16.276Z,6.12
2023-04-19T03:39:44.481Z,6.07
2023-04-19T03:42:11.354Z,6.05
2023-04-19T03:44:40.197Z,6.14
2023-04-19T03:47:08.494Z,6.06
2023-04-19T03:49:37.994Z,5.97
2023-04-19T03:52:05.124Z,5.98
2023-04-19T03:54:31.832Z,5.94
2023-04-19T03:56:58.971Z,5.90
2023-04-19T03:59:28.611Z,5.89
2023-04-19T04:01:55.997Z,5.85
2023-04-19T04:04:23.504Z,5.85
2023-04-19T04:06:50.372Z,5.86
2023-04-19T04:09:17.074Z,5.83
2023-04-19T04:11:44.161Z,5.85
2023-04-19T04:14:12.394Z,5.78
2023-04-19T04:16:44.467Z,5.82
2023-04-19T04:19:11.645Z,5.79
2023-04-19T04:21:38.498Z,5.79
2023-04-19T04:24:06.973Z,5.72
2023-04-19T04:26:41.810Z,5.66
2023-04-19T04:29:08.553Z,5.67
2023-04-19T04:31:36.759Z,5.59
2023-04-19T04:34:04.268Z,5.60
2023-04-19T04:36:32.197Z,5.65
2023-04-19T04:38:59.089Z,5.63
2023-04-19T04:41:25.786Z,5.65
2023-04-19T04:44:08.288Z,5.59
2023-04-19T04:46:38.310Z,5.56
2023-04-19T04:49:05.577Z,5.57
2023-04-19T04:51:32.626Z,5.60
2023-04-19T04:53:59.428Z,5.62
2023-04-19T04:56:29.108Z,5.65
2023-04-19T04:58:55.965Z,5.63
2023-04-19T05:01:22.891Z,5.69
2023-04-19T05:03:50.233Z,5.68
2023-04-19T05:06:17.104Z,5.65
2023-04-19T05:08:44.709Z,5.68
2023-04-19T05:11:11.787Z,5.76
2023-04-19T05:13:39.948Z,5.86
2023-04-19T05:16:06.783Z,5.79
2023-04-19T05:18:33.737Z,5.73
2023-04-19T05:21:00.880Z,5.90
2023-04-19T05:23:27.624Z,5.93
2023-04-19T05:25:54.687Z,5.89
2023-04-19T05:28:21.412Z,5.98
2023-04-19T05:30:48.260Z,6.05
2023-04-19T05:33:15.010Z,6.05
2023-04-19T05:35:41.942Z,6.33
2023-04-19T05:38:08.754Z,6.38
2023-04-19T05:40:35.791Z,6.39
2023-04-19T05:43:02.594Z,6.54
2023-04-19T05:45:29.338Z,6.60
2023-04-19T05:47:56.148Z,6.62
2023-04-19T05:50:23.038Z,6.71
2023-04-19T05:52:50.150Z,6.68
2023-04-19T05:55:16.842Z,6.54
2023-04-19T05:57:46.451Z,6.72
2023-04-19T06:00:14.213Z,6.78
2023-04-19T06:02:41.276Z,6.69
2023-04-19T06:05:10.382Z,6.69
2023-04-19T06:07:43.218Z,6.79
2023-04-19T06:10:14.027Z,6.86
2023-04-19T06:12:40.744Z,7.01
2023-04-19T06:15:11.391Z,7.05
2023-04-19T06:17:44.408Z,7.13
2023-04-19T06:20:11.292Z,7.18
2023-04-19T06:22:45.142Z,7.20
2023-04-19T06:25:13.645Z,7.28
2023-04-19T06:27:40.636Z,7.31
2023-04-19T06:30:08.056Z,7.55
2023-04-19T06:32:34.759Z,7.98
2023-04-19T06:35:02.022Z,8.15
2023-04-19T06:37:31.486Z,8.23
2023-04-19T06:39:58.847Z,7.89
2023-04-19T06:42:25.607Z,8.14
2023-04-19T06:44:52.406Z,8.68
2023-04-19T06:47:19.318Z,8.04
2023-04-19T06:49:46.382Z,7.87
2023-04-19T06:52:14.644Z,7.76
2023-04-19T06:54:41.762Z,7.63
2023-04-19T06:57:08.491Z,7.90
2023-04-19T06:59:35.640Z,7.82
2023-04-19T07:02:02.561Z,7.86
2023-04-19T07:04:31.055Z,7.83
2023-04-19T07:06:58.297Z,8.02
2023-04-19T07:09:25.363Z,7.93
2023-04-19T07:11:56.625Z,7.96
2023-04-19T07:14:24.230Z,8.05
2023-04-19T07:16:52.809Z,8.09
2023-04-19T07:19:19.846Z,8.30
2023-04-19T07:21:46.675Z,8.34
2023-04-19T07:24:14.592Z,8.65
2023-04-19T07:26:45.212Z,8.38
2023-04-19T07:29:13.281Z,8.93
2023-04-19T07:35:34.958Z,8.92
2023-04-19T07:38:02.064Z,8.79
2023-04-19T07:40:28.783Z,9.22
2023-04-19T07:42:55.526Z,9.32
2023-04-19T07:45:23.007Z,9.83
2023-04-19T07:47:50.389Z,9.93
2023-04-19T07:50:17.820Z,9.34
2023-04-19T07:52:44.729Z,9.20
2023-04-19T07:55:15.497Z,10.19
2023-04-19T07:57:42.506Z,9.06
2023-04-19T08:00:11.568Z,9.11
2023-04-19T08:06:32.937Z,9.77
2023-04-19T08:09:00.276Z,10.07
2023-04-19T08:11:27.458Z,9.31
2023-04-19T08:14:06.691Z,8.82
2023-04-19T08:20:07.838Z,9.54
2023-04-19T08:22:35.215Z,10.14
2023-04-19T08:25:02.387Z,9.48
2023-04-19T08:27:29.544Z,9.55
2023-04-19T08:29:56.369Z,10.18
2023-04-19T08:32:23.553Z,10.54
2023-04-19T08:34:50.383Z,9.86
2023-04-19T08:37:18.609Z,10.22
2023-04-19T08:39:45.744Z,10.79
2023-04-19T08:42:28.699Z,10.70
2023-04-19T08:45:26.232Z,11.33
2023-04-19T08:48:00.038Z,11.03
2023-04-19T08:50:34.636Z,11.31
2023-04-19T08:53:24.024Z,11.68
2023-04-19T08:56:06.893Z,11.74
2023-04-19T08:58:57.073Z,12.09
2023-04-19T09:04:02.693Z,12.88
2023-04-19T09:06:40.390Z,12.44
2023-04-19T09:11:48.747Z,12.59
2023-04-19T09:14:16.229Z,13.52
2023-04-19T09:16:43.752Z,13.28
2023-04-19T09:19:23.360Z,12.92
2023-04-19T09:21:51.977Z,13.15
2023-04-19T09:24:18.806Z,13.66
2023-04-19T09:26:54.475Z,13.40
2023-04-19T09:29:21.504Z,13.79
2023-04-19T09:31:57.508Z,14.39
2023-04-19T09:34:24.346Z,14.68
2023-04-19T09:37:00.625Z,14.56
2023-04-19T09:39:35.654Z,14.33
2023-04-19T09:42:03.557Z,14.81
2023-04-19T09:47:00.900Z,15.64
2023-04-19T09:49:41.211Z,14.81
2023-04-19T09:52:14.312Z,15.03
2023-04-19T09:54:41.135Z,13.91
2023-04-19T09:57:07.846Z,14.65
2023-04-19T09:59:34.582Z,14.52
2023-04-19T10:02:01.511Z,14.39
2023-04-19T10:04:38.278Z,13.76
2023-04-19T10:09:49.618Z,15.42
2023-04-19T10:12:46.338Z,16.05
2023-04-19T10:15:12.273Z,13.13
2023-04-19T10:18:15.490Z,15.20
2023-04-19T10:20:47.725Z,15.94
2023-04-19T10:23:14.533Z,16.61
2023-04-19T10:25:41.385Z,16.25
2023-04-19T10:28:08.145Z,16.86
2023-04-19T10:30:34.907Z,16.13
2023-04-19T10:33:04.425Z,15.62
2023-04-19T10:35:40.517Z,16.25
2023-04-19T10:38:14.582Z,16.17
2023-04-19T10:41:00.126Z,17.38
2023-04-19T10:43:27.601Z,16.72
2023-04-19T10:46:06.202Z,16.23
2023-04-19T10:48:33.945Z,16.93
2023-04-19T10:51:04.362Z,16.23
2023-04-19T10:53:50.013Z,16.25
2023-04-19T10:56:21.086Z,15.88
2023-04-19T10:59:03.627Z,15.99
2023-04-19T11:01:39.784Z,16.10
2023-04-19T11:04:10.037Z,16.59
2023-04-19T11:10:28.692Z,16.75
2023-04-19T11:12:56.521Z,15.96
2023-04-19T11:15:23.858Z,15.44
2023-04-19T11:18:00.827Z,15.42
2023-04-19T11:20:36.314Z,16.24
2023-04-19T11:23:03.390Z,17.02
2023-04-19T11:25:31.765Z,17.07
2023-04-19T11:27:58.501Z,16.69
2023-04-19T11:30:31.856Z,17.14
2023-04-19T11:32:58.651Z,17.69
2023-04-19T11:35:27.016Z,17.61
2023-04-19T11:37:53.955Z,17.88
2023-04-19T11:40:21.750Z,17.02
2023-04-19T11:43:02.404Z,17.84
2023-04-19T11:45:33.006Z,17.79
2023-04-19T11:48:06.216Z,17.35
2023-04-19T11:50:45.570Z,16.00
2023-04-19T11:53:22.931Z,16.60
2023-04-19T11:55:51.212Z,17.15
2023-04-19T11:58:30.840Z,17.43
2023-04-19T12:01:05.509Z,17.02
2023-04-19T12:03:33.764Z,17.05
2023-04-19T12:06:01.823Z,17.38
2023-04-19T12:08:51.687Z,17.61
2023-04-19T12:11:25.017Z,18.56
2023-04-19T12:14:12.154Z,18.11
2023-04-19T12:16:39.025Z,17.81
2023-04-19T12:19:16.087Z,17.96
2023-04-19T12:21:43.724Z,17.86
2023-04-19T12:24:10.546Z,17.20
2023-04-19T12:26:37.620Z,16.54
2023-04-19T12:29:04.385Z,16.81
2023-04-19T12:31:31.746Z,17.79
2023-04-19T12:33:58.882Z,17.49
2023-04-19T12:36:25.734Z,18.09
2023-04-19T12:38:52.508Z,17.64
2023-04-19T12:41:19.291Z,18.20
2023-04-19T12:43:46.031Z,18.29
2023-04-19T12:46:12.852Z,18.32
2023-04-19T12:48:39.994Z,18.61
2023-04-19T12:51:06.819Z,18.06
2023-04-19T12:53:33.873Z,17.58
2023-04-19T12:56:00.645Z,18.29
2023-04-19T12:58:27.816Z,18.15
2023-04-19T13:00:56.574Z,18.60
2023-04-19T13:03:24.134Z,19.03
2023-04-19T13:05:51.667Z,18.52
2023-04-19T13:08:18.859Z,19.13
2023-04-19T13:10:48.192Z,19.45
2023-04-19T13:13:14.969Z,19.19
2023-04-19T13:15:42.037Z,18.94
2023-04-19T13:18:09.000Z,19.12
2023-04-19T13:20:35.753Z,19.57
2023-04-19T13:23:03.021Z,18.67
2023-04-19T13:25:29.811Z,18.79
2023-04-19T13:27:56.603Z,18.99
2023-04-19T13:30:23.802Z,18.97
2023-04-19T13:32:50.695Z,18.68
2023-04-19T13:35:18.154Z,18.38
2023-04-19T13:37:44.907Z,19.16
2023-04-19T13:40:18.665Z,19.18
2023-04-19T13:42:46.590Z,19.71
2023-04-19T13:45:14.588Z,18.95
2023-04-19T13:47:47.758Z,19.39
2023-04-19T13:50:14.800Z,19.13
2023-04-19T13:52:41.660Z,18.42
2023-04-19T13:55:10.576Z,18.49
2023-04-19T13:57:40.385Z,18.56
2023-04-19T14:00:08.023Z,18.31
2023-04-19T14:02:52.428Z,18.98
2023-04-19T14:05:20.205Z,19.61
2023-04-19T14:07:46.921Z,19.58
2023-04-19T14:10:13.789Z,20.28
2023-04-19T14:12:41.124Z,20.17
2023-04-19T14:15:08.382Z,19.26
2023-04-19T14:17:36.263Z,18.91
2023-04-19T14:20:05.661Z,19.79
2023-04-19T14:22:34.203Z,20.64
2023-04-19T14:25:01.309Z,20.38
2023-04-19T14:27:28.080Z,20.43
2023-04-19T14:29:54.779Z,20.43
2023-04-19T14:32:26.643Z,20.89
2023-04-19T14:34:55.838Z,20.55
2023-04-19T14:37:25.980Z,20.31
2023-04-19T14:39:53.205Z,20.67
2023-04-19T14:42:22.311Z,20.93
2023-04-19T14:44:53.152Z,19.82
2023-04-19T14:47:20.782Z,19.63
2023-04-19T14:49:50.316Z,19.80
2023-04-19T14:52:20.111Z,20.50
2023-04-19T14:54:47.748Z,20.50
2023-04-19T14:57:15.231Z,20.12
2023-04-19T14:59:44.800Z,20.24
2023-04-19T15:02:12.325Z,20.12
2023-04-19T15:04:41.249Z,20.50
2023-04-19T15:07:15.947Z,20.39
2023-04-19T15:09:43.312Z,19.88
2023-04-19T15:12:10.749Z,20.08
2023-04-19T15:14:38.555Z,20.37
2023-04-19T15:17:06.851Z,20.74
2023-04-19T15:19:33.591Z,19.18
2023-04-19T15:22:01.804Z,20.03
2023-04-19T15:24:28.689Z,20.11
2023-04-19T15:27:04.221Z,20.04
2023-04-19T15:29:32.621Z,20.61
2023-04-19T15:31:59.497Z,19.39
2023-04-19T15:34:29.188Z,19.72
2023-04-19T15:36:56.943Z,20.18
2023-04-19T15:39:24.119Z,20.00
2023-04-19T15:41:52.166Z,19.55
2023-04-19T15:44:19.686Z,20.53
2023-04-19T15:46:46.859Z,20.84
2023-04-19T15:49:14.491Z,20.22
2023-04-19T15:51:58.686Z,20.29
2023-04-19T15:54:26.554Z,19.92
2023-04-19T15:56:54.579Z,19.86
2023-04-19T15:59:21.599Z,19.80
2023-04-19T16:01:58.799Z,20.34
2023-04-19T16:04:28.658Z,20.84
2023-04-19T16:06:56.311Z,21.18
2023-04-19T16:09:23.061Z,21.95
2023-04-19T16:11:50.154Z,21.24
2023-04-19T16:14:16.862Z,21.81
2023-04-19T16:16:44.737Z,21.63
2023-04-19T16:19:12.598Z,21.75
2023-04-19T16:21:41.068Z,18.58
2023-04-19T16:24:09.070Z,19.66
2023-04-19T16:26:36.474Z,18.66
2023-04-19T16:29:03.622Z,17.65
2023-04-19T16:31:31.329Z,17.62
2023-04-19T16:33:58.528Z,17.12
2023-04-19T16:36:26.452Z,16.80
2023-04-19T16:38:53.586Z,17.05
2023-04-19T16:41:20.661Z,17.20
2023-04-19T16:43:50.244Z,19.17
2023-04-19T16:46:17.422Z,19.73
2023-04-19T16:48:44.758Z,20.43
2023-04-19T16:51:12.999Z,20.59
2023-04-19T16:53:40.373Z,19.78
2023-04-19T16:56:07.832Z,19.88
2023-04-19T16:58:34.602Z,20.72
2023-04-19T17:01:01.840Z,20.09
2023-04-19T17:03:30.272Z,20.67
2023-04-19T17:05:57.925Z,20.27
2023-04-19T17:08:25.071Z,20.49
2023-04-19T17:10:53.258Z,18.43
2023-04-19T17:13:20.528Z,17.52
2023-04-19T17:15:48.239Z,17.14
2023-04-19T17:18:16.440Z,18.14
2023-04-19T17:20:44.480Z,17.98
2023-04-19T17:23:11.295Z,17.92
2023-04-19T17:25:38.691Z,18.65
2023-04-19T17:28:05.567Z,18.88
2023-04-19T17:30:32.863Z,18.43
2023-04-19T17:33:00.420Z,18.02
2023-04-19T17:35:27.771Z,16.36
2023-04-19T17:37:55.725Z,15.24
2023-04-19T17:40:22.563Z,15.73
2023-04-19T17:42:50.488Z,14.07
2023-04-19T17:45:17.268Z,13.81
2023-04-19T17:47:44.696Z,13.61
2023-04-19T17:50:13.704Z,13.45
2023-04-19T17:52:41.166Z,13.34
2023-04-19T17:55:09.254Z,13.43
2023-04-19T17:57:38.828Z,13.22
2023-04-19T18:00:08.566Z,13.19
2023-04-19T18:02:36.454Z,13.51
2023-04-19T18:05:04.199Z,13.11
2023-04-19T18:07:31.512Z,12.86
2023-04-19T18:09:58.573Z,12.71
2023-04-19T18:12:25.910Z,12.70
2023-04-19T18:14:53.629Z,12.42
2023-04-19T18:17:23.245Z,12.65
2023-04-19T18:19:52.778Z,12.64
2023-04-19T18:22:19.974Z,12.43
2023-04-19T18:24:47.309Z,12.32
2023-04-19T18:27:15.155Z,12.28
2023-04-19T18:29:41.992Z,12.06
2023-04-19T18:32:11.727Z,11.85
2023-04-19T18:34:40.013Z,11.85
2023-04-19T18:37:16.239Z,11.67
2023-04-19T18:39:43.859Z,11.67
2023-04-19T18:42:11.259Z,11.58
2023-04-19T18:44:52.822Z,11.57
2023-04-19T18:47:20.808Z,11.37
2023-04-19T18:50:02.893Z,11.38
2023-04-19T18:52:31.720Z,11.31
2023-04-19T18:54:58.840Z,11.20
2023-04-19T18:57:27.702Z,11.18
2023-04-19T18:59:56.239Z,11.15
2023-04-19T19:02:23.210Z,11.05
2023-04-19T19:04:56.896Z,10.98
2023-04-19T19:09:56.731Z,10.90
2023-04-19T19:12:25.370Z,10.94
2023-04-19T19:14:52.349Z,10.82
2023-04-19T19:17:19.790Z,10.83
2023-04-19T19:19:46.777Z,10.79
2023-04-19T19:22:25.575Z,10.70
2023-04-19T19:24:54.771Z,10.69
2023-04-19T19:27:24.574Z,10.67
2023-04-19T19:30:07.442Z,10.67
2023-04-19T19:32:37.071Z,10.59
2023-04-19T19:35:07.932Z,10.55
2023-04-19T19:37:41.050Z,10.52
2023-04-19T19:40:10.859Z,10.54
2023-04-19T19:45:54.091Z,10.44
2023-04-19T19:48:21.251Z,10.42
2023-04-19T19:51:17.072Z,10.40
2023-04-19T19:53:37.891Z,10.39
2023-04-19T19:56:11.067Z,10.35
2023-04-19T19:58:50.060Z,10.33
2023-04-19T20:01:18.979Z,10.25
2023-04-19T20:03:46.436Z,10.24
2023-04-19T20:08:45.702Z,10.20
2023-04-19T20:11:12.876Z,10.20
2023-04-19T20:13:40.699Z,10.20
2023-04-19T20:16:07.798Z,10.16
2023-04-19T20:18:34.887Z,10.19
2023-04-19T20:21:02.014Z,10.22
2023-04-19T20:23:29.405Z,10.24
2023-04-19T20:25:57.217Z,10.23
2023-04-19T20:28:24.359Z,10.25
2023-04-19T20:30:51.229Z,10.19
2023-04-19T20:33:17.985Z,10.15
2023-04-19T20:35:45.107Z,10.12
2023-04-19T20:38:12.196Z,10.08
2023-04-19T20:40:39.045Z,10.05
2023-04-19T20:43:06.033Z,10.03
2023-04-19T20:45:34.020Z,9.99
2023-04-19T20:48:01.460Z,9.95
2023-04-19T20:50:28.577Z,9.95
2023-04-19T20:52:55.312Z,9.94
2023-04-19T20:55:22.149Z,9.91
2023-04-19T20:57:51.742Z,9.91
2023-04-19T21:00:19.464Z,9.85
2023-04-19T21:02:47.658Z,9.81
2023-04-19T21:05:14.817Z,9.86
2023-04-19T21:07:41.937Z,9.82
2023-04-19T21:10:09.691Z,9.81
2023-04-19T21:12:37.798Z,9.77
2023-04-19T21:15:05.467Z,9.75
2023-04-19T21:17:32.713Z,9.75
2023-04-19T21:20:01.262Z,9.73
2023-04-19T21:22:28.501Z,9.68
2023-04-19T21:24:55.330Z,9.66
2023-04-19T21:27:22.369Z,9.69
2023-04-19T21:29:49.112Z,9.62
2023-04-19T21:32:15.938Z,9.63
2023-04-19T21:34:44.723Z,9.57
2023-04-19T21:37:12.697Z,9.50
2023-04-19T21:39:39.572Z,9.45
2023-04-19T21:42:07.379Z,9.44
2023-04-19T21:44:35.230Z,9.41
2023-04-19T21:47:02.165Z,9.36
2023-04-19T21:49:29.574Z,9.32
2023-04-19T21:51:56.417Z,9.29
2023-04-19T21:54:33.266Z,9.26
2023-04-19T21:57:01.721Z,9.23
2023-04-19T21:59:29.230Z,9.22
2023-04-19T22:01:56.011Z,9.15
2023-04-19T22:04:22.864Z,9.13
2023-04-19T22:06:51.294Z,9.19
2023-04-19T22:09:18.732Z,9.05
2023-04-19T22:11:45.964Z,9.00
2023-04-19T22:14:13.181Z,8.97
2023-04-19T22:16:40.118Z,8.94
2023-04-19T22:19:06.894Z,8.91
2023-04-19T22:21:36.468Z,8.93
2023-04-19T22:24:03.741Z,8.89
2023-04-19T22:26:30.504Z,8.84
2023-04-19T22:28:57.234Z,8.78
2023-04-19T22:31:24.301Z,8.84
2023-04-19T22:33:51.384Z,8.76
2023-04-19T22:36:18.649Z,8.72
2023-04-19T22:38:45.557Z,8.69
2023-04-19T22:41:13.351Z,8.68
2023-04-19T22:43:41.765Z,8.72
2023-04-19T22:46:09.086Z,8.87
2023-04-19T22:48:36.648Z,8.94
2023-04-19T22:51:06.109Z,9.30
2023-04-19T22:53:34.181Z,9.32
2023-04-19T22:56:00.878Z,9.67
2023-04-19T22:58:27.968Z,10.08
2023-04-19T23:00:54.859Z,10.55
2023-04-19T23:03:22.071Z,10.60
2023-04-19T23:05:48.912Z,11.26
2023-04-19T23:08:16.396Z,11.24
2023-04-19T23:10:43.318Z,10.74
2023-04-19T23:13:10.036Z,11.02
2023-04-19T23:15:36.916Z,10.93
2023-04-19T23:18:04.121Z,11.07
2023-04-19T23:20:30.897Z,11.09
2023-04-19T23:22:58.534Z,10.81
2023-04-19T23:25:25.257Z,9.48
2023-04-19T23:27:52.036Z,10.36
2023-04-19T23:30:18.757Z,10.49
2023-04-19T23:32:46.826Z,9.85
2023-04-19T23:35:13.921Z,9.36
2023-04-19T23:37:40.638Z,8.91
2023-04-19T23:40:09.297Z,9.06
2023-04-19T23:42:37.220Z,8.50
2023-04-19T23:45:05.985Z,8.39
2023-04-19T23:47:32.839Z,8.39
2023-04-19T23:49:59.652Z,8.12
2023-04-19T23:52:27.022Z,7.92
2023-04-19T23:54:53.806Z,7.72
2023-04-19T23:58:03.693Z,7.73
